Haxey, United Kingdom
Current Conditions -  °F | °C
As of 8:20 AM on Monday 22 Dec 2014 (Local Time) from EGCN Reporting Station
Overcast Overcast  
Wind Chill: 57°   Ceiling: 3000
Heat Index: 57°   Visibility: 6mi
Dew Point: 48°   Wind: 24mph
Humidity: 72%   Direction: 230°SW
Pressure: 29.83"   Gusts: NA
Location:  53.49°N, 0.84°W
Report Text: EGCN 220820Z 23021KT 9999 SCT025 OVC030 14/09 Q1010
Loading
Personal Weather Stations






























Interactive Weather Map New forecast layout! Learn more

10-Day Weather Forecast

Advertisements
Track Severe Weather on mobile